Time;durP1;ratioP1;P1;durP2;ratioP2;P2;SDS_P1;SDS_P2;PMS_P1;PMS_P2;Temp;Humidity;BMP_temperature;BMP_pressure;BME280_temperature;BME280_humidity;BME280_pressure;Samples;Min_cycle;Max_cycle;Signal;HPM_P1;HPM_P2
2022/10/27 02:47:36;;;;;;;3.30;0.30;;;13.90;90.90;;;;;;5242823;23;89436;-73
2022/10/27 02:50:01;;;;;;;3.72;0.47;;;13.80;90.60;;;;;;4879307;28;86820;-73
2022/10/27 02:52:27;;;;;;;3.72;0.30;;;13.80;90.50;;;;;;4880736;28;87722;-73
2022/10/27 02:54:52;;;;;;;6.40;0.30;;;13.80;90.40;;;;;;4870139;28;87305;-71
2022/10/27 02:57:18;;;;;;;7.15;0.90;;;13.80;90.40;;;;;;4870247;28;86523;-71
2022/10/27 02:59:44;;;;;;;6.90;1.30;;;13.80;91.20;;;;;;4865154;28;86289;-72
2022/10/27 03:02:10;;;;;;;11.52;1.33;;;13.60;93.10;;;;;;4871380;28;87573;-71
2022/10/27 03:04:36;;;;;;;6.07;1.20;;;13.50;93.70;;;;;;4869887;28;86638;-72
2022/10/27 03:07:03;;;;;;;6.63;1.25;;;13.30;93.70;;;;;;4881746;28;86844;-72
2022/10/27 03:09:29;;;;;;;7.78;1.08;;;13.20;94.30;;;;;;4873331;28;86408;-72
2022/10/27 03:11:54;;;;;;;7.32;1.05;;;13.10;94.50;;;;;;4878778;28;87122;-73
2022/10/27 03:14:20;;;;;;;3.97;0.70;;;13.00;94.40;;;;;;4876985;28;87118;-74
2022/10/27 03:16:46;;;;;;;9.10;1.08;;;12.90;94.20;;;;;;4881874;28;87580;-73
2022/10/27 03:19:11;;;;;;;4.97;0.70;;;12.80;93.90;;;;;;4881461;28;87190;-70
2022/10/27 03:21:37;;;;;;;7.03;1.10;;;12.70;93.80;;;;;;4879284;28;89865;-73
2022/10/27 03:24:03;;;;;;;8.75;0.65;;;12.70;93.90;;;;;;4880186;28;86316;-72
2022/10/27 03:26:28;;;;;;;5.95;1.08;;;12.60;94.00;;;;;;4874706;28;86466;-71
2022/10/27 03:28:54;;;;;;;3.83;0.85;;;12.60;94.00;;;;;;4871127;28;86324;-71
2022/10/27 03:31:20;;;;;;;7.53;0.77;;;12.50;94.10;;;;;;4881348;28;87126;-71
2022/10/27 03:33:45;;;;;;;6.65;0.63;;;12.50;94.30;;;;;;4880048;28;86979;-71
2022/10/27 03:36:11;;;;;;;7.25;0.88;;;12.50;94.10;;;;;;4883317;28;86636;-70
2022/10/27 03:38:37;;;;;;;6.07;0.40;;;12.50;94.00;;;;;;4878905;28;86363;-71
2022/10/27 03:41:03;;;;;;;6.93;0.40;;;12.50;94.00;;;;;;4876268;28;88193;-70
2022/10/27 03:43:28;;;;;;;3.75;0.32;;;12.60;93.50;;;;;;4877322;28;89324;-71
2022/10/27 03:45:54;;;;;;;3.78;0.20;;;12.70;93.20;;;;;;4878099;28;86862;-72
2022/10/27 03:48:20;;;;;;;7.32;0.43;;;12.80;92.80;;;;;;4880583;28;87019;-71
2022/10/27 03:50:48;;;;;;;8.50;1.00;;;12.90;93.10;;;;;;4877242;28;87243;-73
2022/10/27 03:53:14;;;;;;;5.63;0.73;;;13.00;93.70;;;;;;4863778;28;87187;-73
2022/10/27 03:55:40;;;;;;;8.15;1.02;;;12.80;94.00;;;;;;4861627;28;86756;-73
2022/10/27 03:58:10;;;;;;;4.57;0.75;;;12.70;94.00;;;;;;4862454;28;85754;-71
2022/10/27 04:00:35;;;;;;;4.65;0.82;;;12.60;94.30;;;;;;4871404;28;87766;-72
2022/10/27 04:03:01;;;;;;;5.25;0.80;;;12.60;94.60;;;;;;4867399;28;87225;-72
2022/10/27 04:05:26;;;;;;;5.00;0.80;;;12.40;95.20;;;;;;4873390;28;87336;-73
2022/10/27 04:07:52;;;;;;;6.10;1.02;;;12.40;95.30;;;;;;4862114;28;86766;-73
2022/10/27 04:10:18;;;;;;;5.90;0.70;;;12.30;94.70;;;;;;4872659;28;87246;-74
2022/10/27 04:13:02;;;;;;;4.32;0.70;;;12.40;95.10;;;;;;4881839;28;87041;-73
2022/10/27 04:15:28;;;;;;;4.93;0.57;;;12.30;94.80;;;;;;4862052;28;86285;-72
2022/10/27 04:17:55;;;;;;;9.88;0.95;;;12.30;94.80;;;;;;4866504;28;86331;-72
2022/10/27 04:20:21;;;;;;;4.55;0.57;;;12.30;94.60;;;;;;4868485;28;86670;-72
2022/10/27 04:22:47;;;;;;;4.13;0.50;;;12.30;94.60;;;;;;4889643;28;86288;-72
2022/10/27 04:25:13;;;;;;;5.95;0.50;;;12.20;94.70;;;;;;4864162;28;86718;-72
2022/10/27 04:27:38;;;;;;;5.38;0.60;;;12.30;94.60;;;;;;4869760;28;86386;-72
2022/10/27 04:30:05;;;;;;;4.53;0.30;;;12.30;94.20;;;;;;4866145;28;88217;-72
2022/10/27 04:32:30;;;;;;;2.90;0.40;;;12.40;93.90;;;;;;4865952;28;87171;-71
2022/10/27 04:34:56;;;;;;;3.22;0.47;;;12.60;93.50;;;;;;4866596;28;87295;-72
2022/10/27 04:37:21;;;;;;;5.63;0.30;;;12.70;92.90;;;;;;4865465;28;86938;-71
2022/10/27 04:39:47;;;;;;;4.65;0.20;;;13.00;92.10;;;;;;4868416;28;88494;-70
2022/10/27 04:42:13;;;;;;;3.80;0.30;;;13.10;91.60;;;;;;4863452;28;87307;-72
2022/10/27 04:44:38;;;;;;;5.50;0.30;;;13.30;91.00;;;;;;4869281;28;86511;-71
2022/10/27 04:47:04;;;;;;;2.55;0.40;;;13.40;90.70;;;;;;4873292;28;85572;-72
2022/10/27 04:49:30;;;;;;;2.95;0.30;;;13.50;90.10;;;;;;4863022;28;87329;-72
2022/10/27 04:51:55;;;;;;;3.97;1.10;;;13.70;89.00;;;;;;4863526;28;88067;-72
2022/10/27 04:54:21;;;;;;;4.65;0.40;;;13.80;88.70;;;;;;4871422;28;87497;-72
2022/10/27 04:56:47;;;;;;;3.88;0.25;;;13.90;87.70;;;;;;4867931;28;87129;-71
2022/10/27 04:59:13;;;;;;;1.63;0.20;;;13.90;87.40;;;;;;4873649;28;87890;-72
2022/10/27 05:01:39;;;;;;;3.00;0.30;;;14.00;87.40;;;;;;4867312;28;86866;-69
2022/10/27 05:04:05;;;;;;;4.43;0.40;;;14.00;86.50;;;;;;4862031;28;86950;-71
2022/10/27 05:06:30;;;;;;;5.57;0.35;;;14.10;85.90;;;;;;4877292;28;86641;-70
2022/10/27 05:08:56;;;;;;;4.60;0.25;;;14.20;84.50;;;;;;4867881;28;87267;-71
2022/10/27 05:11:22;;;;;;;4.00;0.20;;;14.30;83.40;;;;;;4861746;28;86963;-72
2022/10/27 05:13:50;;;;;;;4.30;0.65;;;14.40;83.60;;;;;;4860450;28;86816;-72
2022/10/27 05:16:17;;;;;;;11.07;2.10;;;14.40;88.40;;;;;;4870165;28;86608;-72
2022/10/27 05:18:42;;;;;;;9.30;1.38;;;14.30;91.20;;;;;;4867621;28;87834;-72
2022/10/27 05:21:08;;;;;;;6.95;1.42;;;14.20;92.10;;;;;;4873920;28;87963;-71
2022/10/27 05:23:34;;;;;;;4.88;0.50;;;14.00;91.90;;;;;;4873153;28;86627;-71
2022/10/27 05:25:59;;;;;;;3.33;0.30;;;14.00;89.10;;;;;;4861832;28;86355;-72
2022/10/27 05:28:25;;;;;;;6.15;0.47;;;14.10;85.60;;;;;;4863088;28;87209;-71
2022/10/27 05:30:56;;;;;;;3.40;0.22;;;14.20;85.30;;;;;;4862351;28;86535;-71
2022/10/27 05:33:22;;;;;;;4.57;0.68;;;14.30;85.00;;;;;;4863278;28;86485;-71
2022/10/27 05:35:49;;;;;;;10.25;1.40;;;14.30;87.00;;;;;;4869476;28;85764;-71
2022/10/27 05:38:15;;;;;;;5.28;1.20;;;14.30;91.40;;;;;;4867043;28;87103;-71
2022/10/27 05:40:41;;;;;;;6.60;1.20;;;14.20;92.60;;;;;;4873917;28;86860;-71
2022/10/27 05:43:08;;;;;;;7.28;2.53;;;14.10;93.20;;;;;;4862824;28;87553;-71
2022/10/27 05:45:33;;;;;;;5.50;2.17;;;14.00;93.60;;;;;;4863484;28;86707;-71
2022/10/27 05:48:05;;;;;;;12.90;2.10;;;13.90;94.40;;;;;;4861629;28;86749;-71
2022/10/27 05:50:31;;;;;;;8.85;1.83;;;13.90;95.10;;;;;;4863911;28;86283;-71
2022/10/27 05:52:57;;;;;;;9.45;2.00;;;13.80;94.80;;;;;;4873964;28;87326;-71
2022/10/27 05:55:23;;;;;;;7.57;1.88;;;13.80;95.40;;;;;;4876492;28;86808;-71
2022/10/27 05:58:01;;;;;;;10.73;1.98;;;13.80;95.50;;;;;;4871502;28;87116;-71
2022/10/27 06:00:29;;;;;;;8.57;1.95;;;13.80;96.10;;;;;;4873773;28;86381;-72
2022/10/27 06:02:56;;;;;;;9.75;1.95;;;13.80;96.30;;;;;;4872881;28;86769;-71
2022/10/27 06:05:23;;;;;;;10.68;1.90;;;13.70;96.10;;;;;;4871713;28;86718;-73
2022/10/27 06:07:48;;;;;;;8.45;1.88;;;13.70;96.10;;;;;;4865501;28;88350;-71
2022/10/27 06:10:14;;;;;;;12.85;2.30;;;13.70;96.50;;;;;;4866424;28;87870;-72
2022/10/27 06:12:40;;;;;;;9.82;2.22;;;13.70;96.70;;;;;;4870953;28;86478;-71
2022/10/27 06:15:06;;;;;;;11.55;2.10;;;13.70;96.80;;;;;;4872672;28;86335;-72
2022/10/27 06:17:31;;;;;;;7.93;1.98;;;13.70;96.40;;;;;;4868869;28;86533;-72
2022/10/27 06:19:57;;;;;;;11.55;2.03;;;13.70;96.20;;;;;;4867723;28;87497;-71
2022/10/27 06:22:23;;;;;;;10.52;1.70;;;13.80;95.90;;;;;;4871551;28;87151;-72
2022/10/27 06:24:48;;;;;;;8.02;2.08;;;13.90;95.70;;;;;;4865679;28;85854;-72
2022/10/27 06:27:14;;;;;;;8.55;1.70;;;13.90;95.30;;;;;;4875428;28;87383;-72
2022/10/27 06:29:39;;;;;;;8.93;1.73;;;13.90;95.20;;;;;;4871242;28;87407;-71
2022/10/27 06:32:05;;;;;;;10.98;1.77;;;13.90;95.10;;;;;;4875263;28;87274;-72
2022/10/27 06:34:31;;;;;;;10.75;1.70;;;14.00;94.90;;;;;;4864530;28;87111;-72
2022/10/27 06:36:56;;;;;;;9.57;2.22;;;14.10;94.40;;;;;;4866487;28;86813;-72
2022/10/27 06:39:22;;;;;;;14.02;3.00;;;14.10;93.80;;;;;;4865630;28;88191;-71
2022/10/27 06:41:48;;;;;;;12.18;2.40;;;14.10;93.80;;;;;;4870973;28;86752;-72
2022/10/27 06:44:13;;;;;;;12.77;2.00;;;14.10;93.90;;;;;;4868434;28;86962;-72
2022/10/27 06:46:39;;;;;;;9.77;1.83;;;14.20;93.80;;;;;;4868106;28;88261;-71
2022/10/27 06:49:05;;;;;;;11.07;2.53;;;14.30;93.70;;;;;;4867745;28;86230;-71
2022/10/27 06:51:31;;;;;;;13.50;2.10;;;14.40;93.30;;;;;;4868195;28;86841;-72
2022/10/27 06:53:57;;;;;;;13.98;2.25;;;14.60;93.00;;;;;;4867373;28;86704;-71
2022/10/27 06:56:23;;;;;;;9.48;1.75;;;14.70;92.50;;;;;;4868172;28;87744;-72
2022/10/27 06:58:49;;;;;;;15.57;2.55;;;15.20;92.40;;;;;;4863838;28;88447;-72
2022/10/27 07:01:14;;;;;;;12.93;1.77;;;16.60;90.60;;;;;;4873849;28;86425;-72
2022/10/27 07:03:40;;;;;;;13.32;1.67;;;18.20;83.70;;;;;;4869737;28;88092;-73
2022/10/27 07:06:06;;;;;;;11.00;1.83;;;19.20;78.60;;;;;;4868636;28;88267;-74
2022/10/27 07:08:32;;;;;;;17.65;2.47;;;20.50;72.60;;;;;;4866599;28;87448;-73
2022/10/27 07:10:57;;;;;;;9.75;1.77;;;20.90;70.90;;;;;;4872922;28;86398;-73
2022/10/27 07:13:23;;;;;;;7.63;1.73;;;20.70;70.30;;;;;;4872882;28;86213;-73
2022/10/27 07:15:49;;;;;;;6.35;1.50;;;21.00;69.40;;;;;;4868057;28;87145;-73
2022/10/27 07:18:15;;;;;;;10.52;2.40;;;21.30;69.00;;;;;;4864211;28;87027;-73
2022/10/27 07:20:43;;;;;;;6.30;1.65;;;21.50;68.70;;;;;;4863942;28;87696;-73
2022/10/27 07:23:09;;;;;;;10.95;2.40;;;22.60;65.20;;;;;;4864635;28;88674;-74
2022/10/27 07:25:35;;;;;;;67.20;5.32;;;24.00;61.90;;;;;;4860899;28;87701;-73
2022/10/27 07:28:03;;;;;;;8.23;1.92;;;25.10;58.60;;;;;;4866261;28;86376;-74
2022/10/27 07:30:37;;;;;;;16.00;3.38;;;24.90;58.30;;;;;;4867371;28;86976;-73
2022/10/27 07:33:03;;;;;;;10.10;2.33;;;24.60;58.40;;;;;;4867407;28;87371;-73
2022/10/27 07:35:30;;;;;;;10.02;2.08;;;24.70;57.70;;;;;;4874509;28;86367;-73
2022/10/27 07:37:56;;;;;;;9.13;2.13;;;24.80;58.00;;;;;;4868587;28;87804;-73
2022/10/27 07:40:22;;;;;;;11.45;2.40;;;25.60;56.60;;;;;;4870128;28;86588;-73
2022/10/27 07:42:55;;;;;;;10.50;1.98;;;27.20;54.30;;;;;;4869079;28;86713;-73
2022/10/27 07:45:22;;;;;;;7.85;2.15;;;28.30;52.00;;;;;;4871781;28;87771;-73
2022/10/27 07:47:52;;;;;;;6.68;1.83;;;27.90;50.40;;;;;;4880692;28;88245;-73
2022/10/27 07:50:20;;;;;;;7.22;1.95;;;26.80;52.40;;;;;;4873613;28;86803;-73
2022/10/27 07:52:47;;;;;;;8.07;2.05;;;27.00;53.00;;;;;;4870951;28;86302;-73
2022/10/27 07:55:14;;;;;;;11.07;2.30;;;27.50;51.50;;;;;;4870171;28;86492;-73
2022/10/27 07:57:41;;;;;;;10.75;2.35;;;27.70;52.60;;;;;;4875487;28;86592;-73
2022/10/27 08:00:09;;;;;;;6.60;2.30;;;28.60;50.00;;;;;;4866385;28;86280;-73
2022/10/27 08:02:35;;;;;;;8.52;2.15;;;30.10;49.30;;;;;;4872788;28;86223;-71
2022/10/27 08:05:01;;;;;;;8.60;2.25;;;31.70;46.60;;;;;;4872297;28;86731;-73
2022/10/27 08:07:27;;;;;;;8.48;2.17;;;31.20;45.90;;;;;;4871498;28;86500;-73
2022/10/27 08:09:53;;;;;;;5.88;2.13;;;31.60;46.00;;;;;;4865637;28;87872;-72
2022/10/27 08:12:19;;;;;;;10.50;2.28;;;30.50;45.70;;;;;;4867496;28;87186;-73
2022/10/27 08:14:44;;;;;;;7.43;2.30;;;30.20;46.70;;;;;;4867286;28;87770;-73
2022/10/27 08:17:12;;;;;;;6.20;1.60;;;28.50;48.70;;;;;;4864428;28;86752;-73
2022/10/27 08:19:38;;;;;;;9.35;2.33;;;27.10;51.60;;;;;;4864369;28;86879;-73
2022/10/27 08:22:04;;;;;;;10.48;2.53;;;26.20;52.90;;;;;;4865588;28;87205;-72
2022/10/27 08:24:29;;;;;;;8.35;2.33;;;26.00;53.60;;;;;;4869244;28;87382;-73
2022/10/27 08:26:55;;;;;;;6.32;2.30;;;26.70;53.30;;;;;;4876287;28;86762;-73
2022/10/27 08:29:21;;;;;;;9.38;2.65;;;27.40;51.10;;;;;;4870366;28;86829;-73
2022/10/27 08:31:47;;;;;;;9.70;2.15;;;27.10;51.90;;;;;;4869122;28;86721;-73
2022/10/27 08:34:12;;;;;;;10.88;2.20;;;27.10;52.20;;;;;;4865719;28;88383;-73
2022/10/27 08:36:38;;;;;;;10.50;2.30;;;26.50;52.10;;;;;;4869781;28;87162;-73
2022/10/27 08:39:11;;;;;;;8.75;2.50;;;26.50;52.70;;;;;;4870997;28;86165;-72
2022/10/27 08:41:57;;;;;;;10.50;2.13;;;25.80;53.70;;;;;;4867898;28;86829;-72
2022/10/27 08:44:44;;;;;;;9.48;2.33;;;25.40;54.90;;;;;;4865643;28;86518;-73
2022/10/27 08:47:25;;;;;;;10.50;2.72;;;26.00;53.80;;;;;;4864841;28;86732;-72
2022/10/27 08:50:01;;;;;;;7.93;3.08;;;26.20;53.60;;;;;;4870144;28;87071;-72
2022/10/27 08:52:49;;;;;;;9.52;2.58;;;26.80;52.70;;;;;;4869774;28;86468;-72
2022/10/27 08:55:14;;;;;;;9.65;2.30;;;26.50;53.60;;;;;;4861966;28;86570;-72
2022/10/27 08:57:53;;;;;;;8.65;2.75;;;26.10;54.00;;;;;;4874525;28;86783;-72
2022/10/27 09:00:19;;;;;;;8.80;2.45;;;26.90;54.50;;;;;;4873396;28;89063;-73
2022/10/27 09:03:12;;;;;;;4.85;2.08;;;28.60;51.10;;;;;;4873884;28;86471;-73
2022/10/27 09:05:56;;;;;;;9.57;2.70;;;30.30;48.50;;;;;;4877623;28;87277;-72
2022/10/27 09:08:30;;;;;;;9.45;2.20;;;30.60;47.30;;;;;;4875436;28;86960;-73
2022/10/27 09:11:00;;;;;;;7.45;2.67;;;30.50;45.60;;;;;;4878648;28;86696;-73
2022/10/27 09:14:01;;;;;;;8.88;2.40;;;29.30;47.70;;;;;;4880934;28;86823;-73
2022/10/27 09:16:37;;;;;;;10.13;2.20;;;28.60;49.60;;;;;;4862655;28;88037;-73
2022/10/27 09:19:08;;;;;;;9.05;2.95;;;27.80;50.50;;;;;;4870839;28;87478;-72
2022/10/27 09:21:37;;;;;;;7.38;2.58;;;27.40;52.50;;;;;;4881790;28;86497;-73
2022/10/27 09:24:25;;;;;;;8.05;2.53;;;28.00;52.00;;;;;;4875922;28;86597;-73
2022/10/27 09:26:52;;;;;;;10.07;4.25;;;29.60;50.20;;;;;;4878888;28;88223;-73
2022/10/27 09:29:21;;;;;;;7.93;2.65;;;31.90;47.10;;;;;;4880233;28;87887;-71
2022/10/27 09:31:54;;;;;;;10.52;3.03;;;32.40;44.80;;;;;;4869254;28;86742;-71
2022/10/27 09:34:38;;;;;;;8.45;3.50;;;33.70;44.70;;;;;;4873232;28;86696;-71
2022/10/27 09:37:17;;;;;;;9.45;5.03;;;35.10;42.40;;;;;;4877917;28;87365;-71
2022/10/27 09:39:51;;;;;;;8.10;3.63;;;36.10;41.30;;;;;;4872943;28;86938;-71
2022/10/27 09:42:18;;;;;;;8.45;3.65;;;36.20;39.50;;;;;;4866407;28;86858;-71
2022/10/27 09:44:57;;;;;;;8.55;4.68;;;35.90;39.50;;;;;;4876638;28;85752;-71
2022/10/27 09:47:27;;;;;;;9.95;4.40;;;36.20;39.40;;;;;;4870723;28;87228;-72
2022/10/27 09:49:52;;;;;;;11.05;3.58;;;36.20;40.20;;;;;;4871204;28;87522;-71
2022/10/27 09:52:31;;;;;;;6.10;3.08;;;36.60;39.40;;;;;;4875473;28;87727;-71
2022/10/27 09:54:57;;;;;;;7.80;3.95;;;36.40;39.00;;;;;;4879255;28;86886;-71
2022/10/27 09:57:27;;;;;;;8.77;3.65;;;35.80;39.60;;;;;;4868875;28;87720;-71
2022/10/27 10:00:15;;;;;;;7.32;3.05;;;36.10;39.40;;;;;;4867215;28;86770;-71
2022/10/27 10:02:56;;;;;;;11.75;3.35;;;36.30;39.10;;;;;;4862192;28;86463;-72
2022/10/27 10:05:27;;;;;;;7.75;3.70;;;36.40;39.50;;;;;;4871565;28;87271;-72
2022/10/27 10:08:28;;;;;;;7.40;3.92;;;36.30;39.10;;;;;;4878704;28;87601;-72
2022/10/27 10:11:00;;;;;;;5.32;3.40;;;36.10;39.10;;;;;;4876827;28;86207;-72
2022/10/27 10:13:27;;;;;;;5.05;2.88;;;36.10;39.50;;;;;;4872539;28;86594;-72
2022/10/27 10:16:15;;;;;;;9.75;2.92;;;35.10;39.40;;;;;;4872142;28;87043;-71
2022/10/27 10:18:46;;;;;;;9.57;3.10;;;33.90;41.40;;;;;;4870653;28;88306;-71
2022/10/27 10:21:13;;;;;;;6.65;2.70;;;32.30;42.30;;;;;;4863900;28;87912;-71
2022/10/27 10:23:57;;;;;;;9.00;2.95;;;30.40;45.30;;;;;;4863862;28;88063;-71
2022/10/27 10:26:26;;;;;;;9.25;2.50;;;28.90;47.40;;;;;;4876063;28;86424;-72
2022/10/27 10:28:54;;;;;;;;;;;27.30;50.40;;;;;;4868110;28;87400;-73
2022/10/27 10:31:24;;;;;;;;;;;26.00;52.30;;;;;;4867503;28;87911;-73
2022/10/27 10:33:52;;;;;;;6.43;2.25;;;24.80;55.30;;;;;;4865691;28;86384;-72
2022/10/27 10:36:38;;;;;;;8.93;2.42;;;23.90;58.10;;;;;;4866710;28;86466;-72
2022/10/27 10:39:25;;;;;;;8.80;2.45;;;23.20;59.00;;;;;;4866682;28;87154;-72
2022/10/27 10:42:09;;;;;;;8.10;2.28;;;22.60;61.40;;;;;;4869476;28;86663;-72
2022/10/27 10:44:35;;;;;;;6.38;2.30;;;22.10;63.20;;;;;;4872289;28;87740;-72
2022/10/27 10:47:02;;;;;;;8.50;2.63;;;21.60;64.30;;;;;;4869882;28;87116;-72
2022/10/27 10:49:31;;;;;;;9.98;2.63;;;21.40;65.70;;;;;;4870013;28;86596;-72
2022/10/27 10:52:04;;;;;;;5.90;2.22;;;21.20;66.00;;;;;;4875133;28;87362;-71
2022/10/27 10:54:32;;;;;;;7.30;1.92;;;21.00;65.50;;;;;;4870399;28;87207;-72
2022/10/27 10:56:58;;;;;;;6.43;2.80;;;20.70;68.90;;;;;;4864241;28;86808;-72
2022/10/27 10:59:28;;;;;;;9.57;2.50;;;20.60;68.80;;;;;;4871593;28;87633;-72
2022/10/27 11:02:16;;;;;;;5.45;2.55;;;20.40;70.20;;;;;;4872095;28;87014;-72
2022/10/27 11:04:43;;;;;;;6.15;2.20;;;20.20;72.00;;;;;;4861571;28;86768;-72
2022/10/27 11:07:12;;;;;;;10.60;2.13;;;20.00;72.10;;;;;;4864029;28;87594;-72
2022/10/27 11:09:53;;;;;;;7.35;2.25;;;19.90;73.10;;;;;;4867094;28;88136;-71
2022/10/27 11:12:35;;;;;;;7.68;2.33;;;19.80;73.90;;;;;;4861410;28;87976;-72
2022/10/27 11:15:16;;;;;;;11.50;2.38;;;19.60;74.50;;;;;;4870430;28;86939;-72
2022/10/27 11:17:44;;;;;;;9.75;2.42;;;19.60;75.00;;;;;;4861018;28;86961;-72
2022/10/27 11:20:20;;;;;;;8.45;2.58;;;19.50;75.40;;;;;;4861227;28;87504;-72
2022/10/27 11:22:48;;;;;;;11.23;2.33;;;19.30;75.80;;;;;;4860509;28;86740;-72
2022/10/27 11:25:20;;;;;;;9.45;2.90;;;19.20;76.30;;;;;;4873790;28;86337;-72
2022/10/27 11:28:03;;;;;;;7.75;2.05;;;19.10;76.70;;;;;;4865773;28;85960;-72
2022/10/27 11:30:29;;;;;;;;;;;19.10;77.50;;;;;;4863666;28;88712;-72
2022/10/27 11:33:00;;;;;;;6.32;2.33;;;19.10;77.20;;;;;;4870275;28;88724;-72
2022/10/27 11:35:39;;;;;;;9.10;2.05;;;19.00;77.10;;;;;;4868364;28;87340;-72
2022/10/27 11:38:28;;;;;;;9.48;2.80;;;18.90;78.20;;;;;;4872159;28;87148;-72
2022/10/27 11:40:56;;;;;;;13.45;2.60;;;18.80;77.40;;;;;;4866851;28;86828;-72
2022/10/27 11:43:34;;;;;;;6.65;2.53;;;18.90;77.20;;;;;;4865723;28;87769;-71
2022/10/27 11:46:09;;;;;;;5.88;2.20;;;18.90;77.20;;;;;;4865824;28;86983;-73
2022/10/27 11:49:06;;;;;;;10.43;2.67;;;18.80;78.20;;;;;;4865625;28;87043;-72
2022/10/27 11:51:47;;;;;;;9.82;2.25;;;18.80;78.00;;;;;;4863237;28;87137;-73
2022/10/27 11:54:14;;;;;;;10.80;2.53;;;18.70;78.80;;;;;;4864957;28;88765;-72
2022/10/27 11:57:02;;;;;;;7.03;2.30;;;18.70;80.10;;;;;;4867596;28;87030;-73
2022/10/27 11:59:49;;;;;;;8.18;2.63;;;18.60;80.80;;;;;;4874169;28;86507;-72
2022/10/27 12:02:39;;;;;;;6.88;2.28;;;18.60;79.80;;;;;;4868432;28;87870;-72
2022/10/27 12:05:11;;;;;;;8.82;3.15;;;18.60;81.10;;;;;;4867784;28;87120;-72
2022/10/27 12:08:14;;;;;;;9.10;2.55;;;18.70;81.30;;;;;;4866860;28;86450;-72
2022/10/27 12:11:24;;;;;;;8.43;2.08;;;18.70;80.60;;;;;;4869769;28;86973;-72
2022/10/27 12:14:13;;;;;;;8.93;2.33;;;18.70;80.60;;;;;;4861074;28;87413;-73
2022/10/27 12:16:38;;;;;;;10.63;2.47;;;18.70;80.30;;;;;;4861028;28;86940;-73
2022/10/27 12:19:04;;;;;;;7.32;2.22;;;18.80;80.20;;;;;;4868047;28;86836;-73
2022/10/27 12:21:37;;;;;;;7.60;2.15;;;18.90;79.30;;;;;;4862738;28;86199;-73
2022/10/27 12:24:09;;;;;;;7.38;3.00;;;18.90;78.90;;;;;;4871786;28;87809;-72
2022/10/27 12:26:40;;;;;;;7.93;2.45;;;18.90;78.20;;;;;;4859933;28;86655;-72
2022/10/27 12:29:07;;;;;;;7.97;2.25;;;18.90;78.70;;;;;;4861942;28;87797;-73
2022/10/27 12:31:40;;;;;;;8.35;2.05;;;18.90;77.80;;;;;;4865095;28;86899;-73
2022/10/27 12:34:08;;;;;;;9.10;2.38;;;18.90;77.60;;;;;;4866354;28;87279;-73
2022/10/27 12:36:45;;;;;;;9.30;2.85;;;19.00;77.70;;;;;;4861541;28;87013;-72
2022/10/27 12:39:30;;;;;;;6.57;2.25;;;19.00;77.80;;;;;;4868259;28;86260;-72
2022/10/27 12:42:17;;;;;;;11.18;2.92;;;18.90;77.50;;;;;;4869574;28;86241;-72
2022/10/27 12:45:23;;;;;;;10.15;2.42;;;18.90;76.90;;;;;;4872538;28;86639;-72
2022/10/27 12:48:15;;;;;;;8.70;2.42;;;18.90;76.50;;;;;;4870561;28;87001;-72
2022/10/27 12:50:54;;;;;;;12.15;3.03;;;18.90;77.40;;;;;;4868285;28;86560;-72
2022/10/27 12:53:36;;;;;;;6.50;2.22;;;19.00;75.80;;;;;;4871511;28;86926;-73
2022/10/27 12:56:04;;;;;;;11.68;2.13;;;19.00;75.60;;;;;;4870931;28;88295;-73
2022/10/27 12:58:52;;;;;;;14.63;2.83;;;19.00;76.20;;;;;;4869201;28;87228;-73
2022/10/27 13:01:21;;;;;;;7.47;2.53;;;19.10;75.90;;;;;;4870942;28;87167;-72
2022/10/27 13:04:00;;;;;;;13.95;2.65;;;19.00;75.40;;;;;;4871848;28;86956;-73
2022/10/27 13:06:29;;;;;;;8.93;2.20;;;19.00;75.90;;;;;;4863653;28;88672;-73
2022/10/27 13:09:26;;;;;;;7.25;2.22;;;19.00;75.10;;;;;;4875635;28;88001;-73
2022/10/27 13:12:16;;;;;;;10.60;2.80;;;19.00;76.30;;;;;;4870735;28;86606;-73
2022/10/27 13:15:13;;;;;;;9.32;2.30;;;18.90;77.20;;;;;;4872325;28;85622;-74
2022/10/27 13:18:11;;;;;;;7.60;2.10;;;19.00;76.10;;;;;;4861854;28;86625;-73
2022/10/27 13:20:48;;;;;;;10.35;2.38;;;19.00;76.10;;;;;;4871723;28;86969;-73
2022/10/27 13:23:42;;;;;;;10.00;2.38;;;19.00;76.90;;;;;;4866460;28;89041;-73
2022/10/27 13:26:35;;;;;;;8.05;2.10;;;19.00;76.50;;;;;;4861802;28;87327;-73
2022/10/27 13:29:22;;;;;;;9.05;2.33;;;19.10;76.80;;;;;;4873452;28;86594;-72
2022/10/27 13:32:24;;;;;;;11.20;2.53;;;19.10;78.50;;;;;;4875358;28;87478;-72
2022/10/27 13:34:59;;;;;;;12.32;3.15;;;19.20;77.60;;;;;;4857140;28;87047;-72
2022/10/27 13:37:52;;;;;;;14.88;3.30;;;19.10;77.30;;;;;;4875477;28;86288;-73
2022/10/27 13:40:21;;;;;;;11.15;3.00;;;19.10;77.90;;;;;;4873691;28;87426;-73
2022/10/27 13:42:54;;;;;;;14.55;3.30;;;19.20;78.00;;;;;;4873934;28;87470;-72
2022/10/27 13:45:26;;;;;;;10.20;3.13;;;19.20;77.80;;;;;;4859517;28;87014;-72
2022/10/27 13:48:10;;;;;;;12.02;2.80;;;19.20;77.60;;;;;;4865798;28;87124;-73
2022/10/27 13:50:38;;;;;;;11.90;3.00;;;19.20;78.00;;;;;;4872931;28;88346;-74
2022/10/27 13:53:13;;;;;;;11.90;3.05;;;19.10;77.30;;;;;;4873416;28;87229;-73
2022/10/27 13:55:40;;;;;;;13.88;3.05;;;19.20;78.00;;;;;;4869843;28;87044;-72
2022/10/27 13:58:22;;;;;;;9.73;2.65;;;19.10;77.60;;;;;;4871679;28;87958;-72
2022/10/27 14:01:15;;;;;;;11.98;2.20;;;19.20;78.70;;;;;;4869723;28;87498;-72
2022/10/27 14:03:56;;;;;;;10.68;2.17;;;19.20;79.50;;;;;;4868750;28;86929;-73
2022/10/27 14:06:37;;;;;;;12.35;3.08;;;19.30;78.20;;;;;;4862531;28;86462;-73
2022/10/27 14:09:17;;;;;;;13.40;2.63;;;19.30;76.70;;;;;;4868140;28;86270;-73
2022/10/27 14:11:47;;;;;;;12.98;2.40;;;19.30;76.90;;;;;;4868643;28;86589;-73
2022/10/27 14:14:21;;;;;;;;;;;19.20;76.60;;;;;;4864041;28;87044;-73
2022/10/27 14:16:47;;;;;;;11.50;2.00;;;19.20;75.90;;;;;;4872675;28;88273;-73
2022/10/27 14:19:19;;;;;;;13.95;2.38;;;19.30;76.30;;;;;;4874152;28;86656;-73
2022/10/27 14:21:51;;;;;;;7.45;2.08;;;19.20;76.40;;;;;;4871530;28;87125;-73
2022/10/27 14:24:43;;;;;;;9.77;2.30;;;19.20;76.80;;;;;;4873913;28;86803;-72
2022/10/27 14:27:15;;;;;;;10.95;2.28;;;19.20;76.60;;;;;;4873840;28;88521;-73
2022/10/27 14:29:41;;;;;;;11.02;2.83;;;19.20;76.40;;;;;;4865891;28;86436;-73
2022/10/27 14:32:24;;;;;;;14.75;2.30;;;19.20;76.60;;;;;;4861316;28;87085;-74
2022/10/27 14:34:50;;;;;;;9.70;2.58;;;19.20;77.10;;;;;;4871527;28;86400;-72
2022/10/27 14:37:29;;;;;;;8.63;2.50;;;19.10;77.10;;;;;;4867802;28;87165;-71
2022/10/27 14:39:58;;;;;;;12.10;2.65;;;19.10;77.40;;;;;;4870166;28;86911;-73
2022/10/27 14:42:33;;;;;;;12.00;2.50;;;19.10;77.60;;;;;;4867660;28;87894;-71
2022/10/27 14:45:02;;;;;;;9.10;3.05;;;19.10;77.90;;;;;;4871282;28;87159;-71
2022/10/27 14:47:29;;;;;;;7.38;2.35;;;19.00;77.80;;;;;;4869701;28;87427;-73
2022/10/27 14:50:22;;;;;;;16.13;2.90;;;19.00;77.80;;;;;;4864178;28;86523;-72
2022/10/27 14:52:53;;;;;;;10.77;2.47;;;19.00;78.00;;;;;;4866739;28;87251;-72
2022/10/27 14:55:32;;;;;;;10.10;3.05;;;18.90;78.20;;;;;;4867316;28;87179;-73
2022/10/27 14:57:58;;;;;;;10.05;2.30;;;18.90;78.30;;;;;;4868975;28;87032;-73
2022/10/27 15:00:26;;;;;;;15.70;2.53;;;18.80;78.30;;;;;;4867930;28;85825;-73
2022/10/27 15:02:54;;;;;;;7.18;2.08;;;18.70;78.20;;;;;;4863261;28;87058;-73
2022/10/27 15:05:23;;;;;;;13.13;2.42;;;18.60;78.30;;;;;;4863721;28;87126;-72
2022/10/27 15:07:55;;;;;;;11.65;2.40;;;18.60;78.30;;;;;;4863060;28;88474;-72
2022/10/27 15:10:21;;;;;;;9.63;2.60;;;18.60;78.60;;;;;;4860793;28;88242;-72
2022/10/27 15:12:55;;;;;;;14.73;2.78;;;18.50;78.90;;;;;;4868237;28;86648;-71
2022/10/27 15:15:26;;;;;;;9.48;2.83;;;18.50;78.40;;;;;;4866476;28;88187;-72
2022/10/27 15:17:51;;;;;;;9.10;2.55;;;18.40;78.50;;;;;;4865562;28;88115;-72
2022/10/27 15:20:18;;;;;;;8.25;2.22;;;18.40;78.30;;;;;;4865239;28;86439;-72
2022/10/27 15:22:46;;;;;;;12.32;2.20;;;18.40;79.00;;;;;;4863272;28;87271;-72
2022/10/27 15:25:14;;;;;;;8.98;2.35;;;18.30;79.10;;;;;;4867908;28;86249;-71
2022/10/27 15:27:42;;;;;;;9.95;2.58;;;18.20;79.20;;;;;;4865753;28;86840;-72
2022/10/27 15:30:17;;;;;;;8.68;2.15;;;18.20;79.30;;;;;;4865363;28;86737;-70
2022/10/27 15:32:43;;;;;;;8.77;2.67;;;18.10;78.40;;;;;;4864456;28;87780;-71
2022/10/27 15:35:42;;;;;;;10.07;2.40;;;18.00;78.40;;;;;;4862172;28;89290;-72
2022/10/27 15:38:24;;;;;;;14.70;2.63;;;17.80;79.00;;;;;;4847710;28;87393;-71
2022/10/27 15:40:50;;;;;;;14.88;2.88;;;17.80;79.30;;;;;;4865507;28;86935;-71
2022/10/27 15:43:42;;;;;;;14.60;3.72;;;17.70;79.60;;;;;;4865952;28;89142;-73
2022/10/27 15:46:20;;;;;;;12.48;3.70;;;17.60;80.20;;;;;;4861826;28;86916;-73
2022/10/27 15:48:58;;;;;;;12.77;3.80;;;17.60;80.50;;;;;;4867011;28;86286;-73
2022/10/27 15:51:23;;;;;;;14.98;3.90;;;17.50;80.90;;;;;;4868351;28;87664;-73
2022/10/27 15:53:51;;;;;;;15.32;4.65;;;17.40;81.00;;;;;;4866880;28;87793;-73
2022/10/27 15:56:23;;;;;;;13.60;3.90;;;17.30;81.70;;;;;;4867148;28;86954;-71